Accueil
METAR-TAF:

METAR-TAF

Aéroports :

Wemindji, Québec, Canada

latitude: 53-00-39N, longitude: 078-49-49W, altitude: 15 m

Observation

Le bulletin a été fait il y a 5 heures et 16 minutes, à 21:00 UTC
Vent 8 kt de sud/sud-ouest
Température -14°C
Humidité 72%
Pression 1034 hPa
Visibilité: 24.1 km
Quelques nuages à une hauteur de 1500 ft

METAR: CYNC 222100Z 21008KT 15SM FEW015 M14/M18 A3054 RMK CF1 CF TR LAST STFD OBS/NEXT 231400Z SLP347

Heure: 21:16 (02:16 UTC)


TAF: absent

Observations et prévisions météorologiques de plus de 4000 aéroports (messages METAR et TAF).

Les stations disponibles sont représentées par des disques jaunes et rouges sur la carte.

Passer la souris dessus pour voir le nom de la station.

Cliquer dessus pour voir les observations et prévisions météorologiques.

Pour changer de carte: cliquez sur les boutons verts avec une croix noire pour zoomer, sur le bouton vert avec un tiret pour effectuer un zoom arrière, ou sur les flèches vertes pour les cartes adjacentes.


METAR-TAF: